createdAt,value
2023-02-08T00:00:38.386Z,8.90
2023-02-08T00:03:05.542Z,9.33
2023-02-08T00:05:33.783Z,9.43
2023-02-08T00:08:01.616Z,9.30
2023-02-08T00:10:27.899Z,9.03
2023-02-08T00:12:54.600Z,9.57
2023-02-08T00:15:20.806Z,9.10
2023-02-08T00:17:47.038Z,9.07
2023-02-08T00:20:14.757Z,9.07
2023-02-08T00:22:41.080Z,9.70
2023-02-08T00:25:08.089Z,9.63
2023-02-08T00:27:35.735Z,9.60
2023-02-08T00:30:02.019Z,9.67
2023-02-08T00:32:28.217Z,9.70
2023-02-08T00:34:54.394Z,9.80
2023-02-08T00:37:21.214Z,8.90
2023-02-08T00:39:47.397Z,9.17
2023-02-08T00:42:13.586Z,9.00
2023-02-08T00:44:39.746Z,8.67
2023-02-08T00:47:05.985Z,9.00
2023-02-08T00:49:32.202Z,9.17
2023-02-08T00:51:58.389Z,8.60
2023-02-08T00:54:25.319Z,8.70
2023-02-08T00:56:51.580Z,9.10
2023-02-08T00:59:17.987Z,8.97
2023-02-08T01:01:44.175Z,9.87
2023-02-08T01:04:10.448Z,11.57
2023-02-08T01:06:36.706Z,11.73
2023-02-08T01:09:03.250Z,12.07
2023-02-08T01:11:31.202Z,13.90
2023-02-08T01:13:57.821Z,13.90
2023-02-08T01:16:25.280Z,15.53
2023-02-08T01:18:53.083Z,14.43
2023-02-08T01:21:21.014Z,13.37
2023-02-08T01:23:47.730Z,13.80
2023-02-08T01:26:15.747Z,13.23
2023-02-08T01:28:43.199Z,13.43
2023-02-08T01:31:10.957Z,13.73
2023-02-08T01:33:37.451Z,14.13
2023-02-08T01:36:04.837Z,13.47
2023-02-08T01:38:31.254Z,14.17
2023-02-08T01:40:57.388Z,14.13
2023-02-08T01:43:25.975Z,13.83
2023-02-08T01:45:53.372Z,12.87
2023-02-08T01:48:22.042Z,13.37
2023-02-08T01:50:51.391Z,11.90
2023-02-08T01:53:17.868Z,12.80
2023-02-08T01:55:47.635Z,12.47
2023-02-08T01:58:14.281Z,11.43
2023-02-08T02:00:40.770Z,11.43
2023-02-08T02:03:07.982Z,11.43
2023-02-08T02:05:37.991Z,11.57
2023-02-08T02:08:05.156Z,11.77
2023-02-08T02:10:36.219Z,11.43
2023-02-08T02:13:05.246Z,10.83
2023-02-08T02:15:35.050Z,10.60
2023-02-08T02:18:01.604Z,10.80
2023-02-08T02:20:38.148Z,10.97
2023-02-08T02:23:25.640Z,10.47
2023-02-08T02:26:11.380Z,10.07
2023-02-08T02:29:05.320Z,10.00
2023-02-08T02:32:06.815Z,9.70
2023-02-08T02:34:38.586Z,9.77
2023-02-08T02:37:13.381Z,10.00
2023-02-08T02:39:43.400Z,9.50
2023-02-08T02:42:30.970Z,9.37
2023-02-08T02:45:05.992Z,8.70
2023-02-08T02:47:38.554Z,9.33
2023-02-08T02:50:11.646Z,9.63
2023-02-08T02:52:41.182Z,9.37
2023-02-08T02:55:09.813Z,8.60
2023-02-08T02:57:36.326Z,8.37
2023-02-08T03:00:07.249Z,9.67
2023-02-08T03:02:34.587Z,9.33
2023-02-08T03:05:00.833Z,8.50
2023-02-08T03:07:39.278Z,8.87
2023-02-08T03:10:14.521Z,7.43
2023-02-08T03:12:47.901Z,7.87
2023-02-08T03:15:20.456Z,8.40
2023-02-08T03:17:57.187Z,8.20
2023-02-08T03:20:25.887Z,7.63
2023-02-08T03:22:59.936Z,7.13
2023-02-08T03:25:29.565Z,8.10
2023-02-08T03:28:01.613Z,7.60
2023-02-08T03:30:34.094Z,7.20
2023-02-08T03:33:03.023Z,7.27
2023-02-08T03:35:33.185Z,7.87
2023-02-08T03:38:01.595Z,6.67
2023-02-08T03:40:31.482Z,8.10
2023-02-08T03:42:59.566Z,7.53
2023-02-08T03:45:28.502Z,7.57
2023-02-08T03:47:57.081Z,7.50
2023-02-08T03:50:24.653Z,7.83
2023-02-08T03:52:52.084Z,7.53
2023-02-08T03:55:21.236Z,8.27
2023-02-08T03:57:50.730Z,7.23
2023-02-08T04:00:18.372Z,8.00
2023-02-08T04:02:53.753Z,7.07
2023-02-08T04:05:20.423Z,7.17
2023-02-08T04:07:47.510Z,6.73
2023-02-08T04:10:13.696Z,7.33
2023-02-08T04:12:40.286Z,7.30
2023-02-08T04:15:07.563Z,7.07
2023-02-08T04:17:33.826Z,7.90
2023-02-08T04:20:00.047Z,7.27
2023-02-08T04:22:26.507Z,7.00
2023-02-08T04:24:53.318Z,6.63
2023-02-08T04:27:19.698Z,7.07
2023-02-08T04:29:45.878Z,6.90
2023-02-08T04:32:12.620Z,7.80
2023-02-08T04:34:39.024Z,7.60
2023-02-08T04:37:05.319Z,7.43
2023-02-08T04:39:31.532Z,7.17
2023-02-08T04:41:58.445Z,7.20
2023-02-08T04:44:24.742Z,7.07
2023-02-08T04:46:51.008Z,7.10
2023-02-08T04:49:17.201Z,7.33
2023-02-08T04:51:43.498Z,7.33
2023-02-08T04:54:09.826Z,7.63
2023-02-08T04:56:36.202Z,7.20
2023-02-08T04:59:03.703Z,7.60
2023-02-08T05:01:30.107Z,7.20
2023-02-08T05:03:56.353Z,7.80
2023-02-08T05:06:22.577Z,7.70
2023-02-08T05:08:48.848Z,7.20
2023-02-08T05:11:19.377Z,7.37
2023-02-08T05:13:45.633Z,7.73
2023-02-08T05:16:12.502Z,7.10
2023-02-08T05:18:38.660Z,7.87
2023-02-08T05:21:05.250Z,7.87
2023-02-08T05:23:34.324Z,7.20
2023-02-08T05:26:00.481Z,7.37
2023-02-08T05:28:26.831Z,6.87
2023-02-08T05:30:53.086Z,6.80
2023-02-08T05:33:20.110Z,7.53
2023-02-08T05:35:46.325Z,6.93
2023-02-08T05:38:12.595Z,7.70
2023-02-08T05:40:39.229Z,7.13
2023-02-08T05:43:05.767Z,7.00
2023-02-08T05:45:31.944Z,7.57
2023-02-08T05:47:58.313Z,7.13
2023-02-08T05:50:25.281Z,6.80
2023-02-08T05:52:51.519Z,7.27
2023-02-08T05:55:17.845Z,7.20
2023-02-08T05:57:44.190Z,7.77
2023-02-08T06:00:11.701Z,7.63
2023-02-08T06:02:37.886Z,7.27
2023-02-08T06:05:04.411Z,6.90
2023-02-08T06:07:32.423Z,7.20
2023-02-08T06:09:58.633Z,7.67
2023-02-08T06:12:25.068Z,6.70
2023-02-08T06:14:51.263Z,7.37
2023-02-08T06:17:17.679Z,7.10
2023-02-08T06:19:44.073Z,6.83
2023-02-08T06:22:10.326Z,7.03
2023-02-08T06:24:37.278Z,6.80
2023-02-08T06:27:03.654Z,6.13
2023-02-08T06:29:29.786Z,6.70
2023-02-08T06:31:56.099Z,7.10
2023-02-08T06:34:22.869Z,6.93
2023-02-08T06:36:49.030Z,7.23
2023-02-08T06:39:15.238Z,6.90
2023-02-08T06:41:42.137Z,7.20
2023-02-08T06:44:08.414Z,7.07
2023-02-08T06:46:34.658Z,7.07
2023-02-08T06:49:00.925Z,6.73
2023-02-08T06:51:27.228Z,7.47
2023-02-08T06:53:53.493Z,7.03
2023-02-08T06:56:19.705Z,7.73
2023-02-08T06:58:46.646Z,7.73
2023-02-08T07:01:12.992Z,9.03
2023-02-08T07:03:39.279Z,8.60
2023-02-08T07:06:06.008Z,9.83
2023-02-08T07:08:32.994Z,8.77
2023-02-08T07:10:59.244Z,9.03
2023-02-08T07:13:25.558Z,9.03
2023-02-08T07:15:52.538Z,8.87
2023-02-08T07:18:18.774Z,8.20
2023-02-08T07:20:45.090Z,8.43
2023-02-08T07:23:11.375Z,8.87
2023-02-08T07:25:37.715Z,9.00
2023-02-08T07:28:04.038Z,8.53
2023-02-08T07:30:30.613Z,8.67
2023-02-08T07:32:58.209Z,8.60
2023-02-08T07:35:24.729Z,8.37
2023-02-08T07:37:50.948Z,9.60
2023-02-08T07:40:17.471Z,8.30
2023-02-08T07:42:43.640Z,8.40
2023-02-08T07:45:09.781Z,8.87
2023-02-08T07:47:39.011Z,8.43
2023-02-08T07:50:06.548Z,8.10
2023-02-08T07:52:33.162Z,8.43
2023-02-08T07:54:59.479Z,9.40
2023-02-08T07:57:25.688Z,8.97
2023-02-08T07:59:54.044Z,8.60
2023-02-08T08:02:20.441Z,8.60
2023-02-08T08:04:46.653Z,8.17
2023-02-08T08:07:13.433Z,9.03
2023-02-08T08:09:39.745Z,7.67
2023-02-08T08:12:06.468Z,8.07
2023-02-08T08:14:32.709Z,7.80
2023-02-08T08:16:58.888Z,7.03
2023-02-08T08:19:25.280Z,7.50
2023-02-08T08:21:51.483Z,8.70
2023-02-08T08:24:18.420Z,9.30
2023-02-08T08:26:44.794Z,9.23
2023-02-08T08:29:10.940Z,9.27
2023-02-08T08:31:37.903Z,8.60
2023-02-08T08:34:04.177Z,9.10
2023-02-08T08:36:30.663Z,8.77
2023-02-08T08:38:56.937Z,9.23
2023-02-08T08:41:26.373Z,8.63
2023-02-08T08:43:52.850Z,9.00
2023-02-08T08:46:19.079Z,8.43
2023-02-08T08:48:45.972Z,8.07
2023-02-08T08:51:12.270Z,8.63
2023-02-08T08:53:38.480Z,8.13
2023-02-08T08:56:05.570Z,8.87
2023-02-08T08:58:32.892Z,8.13
2023-02-08T09:00:59.613Z,8.20
2023-02-08T09:03:26.206Z,7.53
2023-02-08T09:05:52.804Z,7.03
2023-02-08T09:08:21.122Z,7.17
2023-02-08T09:10:47.331Z,6.60
2023-02-08T09:13:18.622Z,6.90
2023-02-08T09:15:46.170Z,7.47
2023-02-08T09:18:12.566Z,6.80
2023-02-08T09:20:39.060Z,6.50
2023-02-08T09:23:05.238Z,6.90
2023-02-08T09:25:32.646Z,7.30
2023-02-08T09:27:58.925Z,5.97
2023-02-08T09:30:25.192Z,6.40
2023-02-08T09:32:52.121Z,6.67
2023-02-08T09:35:19.002Z,6.83
2023-02-08T09:37:45.222Z,6.20
2023-02-08T09:40:20.839Z,6.57
2023-02-08T09:42:54.668Z,5.90
2023-02-08T09:45:30.618Z,5.60
2023-02-08T09:48:00.483Z,6.23
2023-02-08T09:50:32.334Z,6.30
2023-02-08T09:53:05.623Z,6.73
2023-02-08T09:55:35.264Z,5.60
2023-02-08T09:58:04.723Z,6.07
2023-02-08T10:00:39.913Z,6.17
2023-02-08T10:03:19.176Z,6.00
2023-02-08T10:05:45.501Z,5.80
2023-02-08T10:08:11.997Z,6.10
2023-02-08T10:10:46.425Z,5.30
2023-02-08T10:13:32.978Z,6.07
2023-02-08T10:16:14.599Z,5.33
2023-02-08T10:18:46.806Z,5.57
2023-02-08T10:21:22.018Z,5.23
2023-02-08T10:24:13.019Z,5.30
2023-02-08T10:26:44.233Z,4.77
2023-02-08T10:29:28.125Z,5.77
2023-02-08T10:32:05.576Z,5.37
2023-02-08T10:34:41.104Z,4.97
2023-02-08T10:37:13.521Z,4.73
2023-02-08T10:39:39.896Z,5.20
2023-02-08T10:42:14.306Z,5.37
2023-02-08T10:44:54.204Z,5.80
2023-02-08T10:47:27.027Z,5.50
2023-02-08T10:49:57.827Z,4.47
2023-02-08T10:52:24.095Z,4.50
2023-02-08T10:54:50.369Z,5.40
2023-02-08T10:57:18.728Z,5.10
2023-02-08T10:59:48.882Z,5.37
2023-02-08T11:02:20.906Z,5.53
2023-02-08T11:04:58.487Z,5.30
2023-02-08T11:07:24.638Z,5.43
2023-02-08T11:09:50.837Z,4.60
2023-02-08T11:12:19.588Z,4.70
2023-02-08T11:14:48.639Z,4.33
2023-02-08T11:17:25.778Z,4.73
2023-02-08T11:19:52.347Z,4.70
2023-02-08T11:22:20.812Z,4.13
2023-02-08T11:24:56.127Z,4.20
2023-02-08T11:27:30.773Z,4.30
2023-02-08T11:30:17.946Z,4.63
2023-02-08T11:32:46.103Z,5.00
2023-02-08T11:35:19.884Z,4.63
2023-02-08T11:37:47.933Z,4.53
2023-02-08T11:40:16.595Z,4.07
2023-02-08T11:42:43.582Z,4.10
2023-02-08T11:45:19.136Z,4.47
2023-02-08T11:47:47.159Z,5.03
2023-02-08T11:50:30.604Z,4.30
2023-02-08T11:52:59.131Z,4.40
2023-02-08T11:55:27.936Z,4.50
2023-02-08T11:57:57.143Z,4.23
2023-02-08T12:00:25.671Z,4.17
2023-02-08T12:02:55.837Z,4.10
2023-02-08T12:05:29.541Z,4.50
2023-02-08T12:08:02.203Z,3.80
2023-02-08T12:10:50.217Z,4.43
2023-02-08T12:13:57.987Z,4.50
2023-02-08T12:16:40.077Z,4.07
2023-02-08T12:19:24.811Z,4.50
2023-02-08T12:21:57.410Z,4.30
2023-02-08T12:24:30.822Z,3.70
2023-02-08T12:27:09.488Z,4.20
2023-02-08T12:29:47.764Z,4.13
2023-02-08T12:32:35.102Z,3.77
2023-02-08T12:35:29.489Z,3.33
2023-02-08T12:38:25.754Z,3.80
2023-02-08T12:40:56.990Z,4.00
2023-02-08T12:43:33.118Z,3.80
2023-02-08T12:46:08.642Z,3.60
2023-02-08T12:48:59.190Z,3.77
2023-02-08T12:51:29.711Z,3.90
2023-02-08T12:53:59.052Z,3.30
2023-02-08T12:56:29.385Z,3.67
2023-02-08T12:59:08.102Z,3.03
2023-02-08T13:01:43.451Z,3.17
2023-02-08T13:04:12.652Z,3.17
2023-02-08T13:06:40.643Z,3.80
2023-02-08T13:09:14.775Z,3.03
2023-02-08T13:11:44.796Z,3.03
2023-02-08T13:14:25.262Z,2.83
2023-02-08T13:16:54.111Z,2.87
2023-02-08T13:19:26.670Z,2.50
2023-02-08T13:21:53.764Z,2.70
2023-02-08T13:24:26.432Z,2.30
2023-02-08T13:26:53.455Z,3.00
2023-02-08T13:29:20.452Z,2.40
2023-02-08T13:31:49.136Z,2.90
2023-02-08T13:34:18.475Z,3.20
2023-02-08T13:36:50.713Z,3.10
2023-02-08T13:39:32.534Z,3.37
2023-02-08T13:42:01.158Z,3.07
2023-02-08T13:44:30.292Z,2.63
2023-02-08T13:46:56.805Z,2.90
2023-02-08T13:49:44.453Z,2.67
2023-02-08T13:52:11.522Z,2.50
2023-02-08T13:54:38.202Z,2.60
2023-02-08T13:57:25.740Z,2.80
2023-02-08T14:00:19.464Z,2.53
2023-02-08T14:02:58.031Z,2.80
2023-02-08T14:05:40.924Z,2.87
2023-02-08T14:08:08.249Z,2.87
2023-02-08T14:10:40.946Z,2.87
2023-02-08T14:13:19.430Z,2.73
2023-02-08T14:15:47.021Z,2.70
2023-02-08T14:18:23.559Z,2.77
2023-02-08T14:21:00.653Z,2.77
2023-02-08T14:23:29.464Z,2.43
2023-02-08T14:25:57.105Z,2.77
2023-02-08T14:28:26.867Z,3.20
2023-02-08T14:30:54.962Z,2.90
2023-02-08T14:33:25.094Z,3.10
2023-02-08T14:35:53.498Z,3.00
2023-02-08T14:38:55.533Z,3.20
2023-02-08T14:41:47.744Z,2.83
2023-02-08T14:44:53.342Z,2.90
2023-02-08T14:48:06.626Z,2.90
2023-02-08T14:51:02.153Z,3.50
2023-02-08T14:53:33.091Z,2.80
2023-02-08T14:56:04.037Z,2.90
2023-02-08T14:58:32.393Z,3.13
2023-02-08T15:01:01.340Z,2.67
2023-02-08T15:03:30.597Z,2.87
2023-02-08T15:06:27.130Z,3.30
2023-02-08T15:08:53.746Z,2.67
2023-02-08T15:11:22.458Z,2.60
2023-02-08T15:13:49.438Z,3.10
2023-02-08T15:16:15.680Z,2.60
2023-02-08T15:18:45.209Z,2.70
2023-02-08T15:21:17.383Z,2.80
2023-02-08T15:23:58.311Z,2.80
2023-02-08T15:26:25.115Z,3.13
2023-02-08T15:28:51.702Z,2.73
2023-02-08T15:31:20.273Z,2.97
2023-02-08T15:33:46.936Z,2.50
2023-02-08T15:36:17.558Z,3.07
2023-02-08T15:38:44.296Z,2.93
2023-02-08T15:41:11.966Z,2.87
2023-02-08T15:43:40.107Z,2.90
2023-02-08T15:46:15.354Z,2.90
2023-02-08T15:48:42.409Z,2.97
2023-02-08T15:51:10.653Z,3.30
2023-02-08T15:53:38.097Z,3.20
2023-02-08T15:56:05.343Z,2.93
2023-02-08T15:58:34.962Z,4.80
2023-02-08T16:01:02.582Z,3.53
2023-02-08T16:03:29.394Z,2.80
2023-02-08T16:05:57.512Z,3.30
2023-02-08T16:08:27.988Z,3.83
2023-02-08T16:10:57.638Z,3.27
2023-02-08T16:13:25.581Z,3.50
2023-02-08T16:15:58.033Z,3.00
2023-02-08T16:18:35.436Z,3.27
2023-02-08T16:21:03.716Z,2.90
2023-02-08T16:23:31.270Z,3.60
2023-02-08T16:26:10.386Z,3.50
2023-02-08T16:28:36.721Z,4.00
2023-02-08T16:31:03.916Z,6.20
2023-02-08T16:33:31.401Z,4.47
2023-02-08T16:36:01.045Z,4.23
2023-02-08T16:38:28.747Z,3.73
2023-02-08T16:40:58.246Z,4.00
2023-02-08T16:43:26.238Z,4.73
2023-02-08T16:46:21.403Z,4.90
2023-02-08T16:48:51.385Z,3.97
2023-02-08T16:51:21.304Z,4.07
2023-02-08T16:53:47.921Z,4.10
2023-02-08T16:56:14.286Z,4.43
2023-02-08T16:58:41.042Z,6.43
2023-02-08T17:01:11.068Z,4.00
2023-02-08T17:03:37.552Z,4.40
2023-02-08T17:06:04.152Z,3.70
2023-02-08T17:08:32.219Z,3.60
2023-02-08T17:10:58.589Z,3.93
2023-02-08T17:13:26.266Z,3.53
2023-02-08T17:15:53.493Z,3.47
2023-02-08T17:18:20.337Z,3.50
2023-02-08T17:20:46.830Z,3.33
2023-02-08T17:23:14.632Z,6.17
2023-02-08T17:25:41.077Z,4.80
2023-02-08T17:28:08.979Z,3.83
2023-02-08T17:30:37.785Z,3.60
2023-02-08T17:33:05.811Z,3.80
2023-02-08T17:35:32.698Z,3.67
2023-02-08T17:37:59.473Z,4.20
2023-02-08T17:40:31.683Z,4.00
2023-02-08T17:43:00.973Z,3.53
2023-02-08T17:45:27.748Z,4.57
2023-02-08T17:47:54.379Z,3.70
2023-02-08T17:50:22.468Z,3.37
2023-02-08T17:52:48.902Z,4.13
2023-02-08T17:55:16.860Z,3.83
2023-02-08T17:57:44.422Z,3.17
2023-02-08T18:00:12.720Z,3.90
2023-02-08T18:06:20.654Z,3.67
2023-02-08T18:12:34.755Z,3.57
2023-02-08T18:15:00.899Z,4.10
2023-02-08T18:17:27.153Z,5.77
2023-02-08T18:19:53.279Z,4.77
2023-02-08T18:22:20.409Z,4.80
2023-02-08T18:24:47.571Z,4.40
2023-02-08T18:27:13.799Z,4.33
2023-02-08T18:29:40.296Z,5.20
2023-02-08T18:32:06.681Z,4.17
2023-02-08T18:34:32.953Z,4.27
2023-02-08T18:36:59.372Z,4.20
2023-02-08T18:39:26.395Z,4.20
2023-02-08T18:41:53.478Z,4.40
2023-02-08T18:44:20.273Z,4.37
2023-02-08T18:46:47.132Z,4.93
2023-02-08T18:49:15.313Z,4.60
2023-02-08T18:51:44.260Z,4.80
2023-02-08T18:54:12.927Z,5.00
2023-02-08T18:56:41.523Z,6.07
2023-02-08T18:59:08.843Z,4.10
2023-02-08T19:01:35.987Z,4.93
2023-02-08T19:04:02.973Z,5.77
2023-02-08T19:06:30.929Z,5.53
2023-02-08T19:08:58.702Z,5.17
2023-02-08T19:11:26.590Z,5.23
2023-02-08T19:13:55.580Z,5.03
2023-02-08T19:16:23.678Z,5.13
2023-02-08T19:18:52.139Z,6.53
2023-02-08T19:21:19.054Z,6.77
2023-02-08T19:23:45.603Z,5.67
2023-02-08T19:26:15.933Z,5.60
2023-02-08T19:28:45.125Z,5.90
2023-02-08T19:31:14.818Z,6.20
2023-02-08T19:33:42.937Z,7.63
2023-02-08T19:36:09.861Z,6.50
2023-02-08T19:38:36.176Z,6.20
2023-02-08T19:41:05.683Z,6.57
2023-02-08T19:43:32.371Z,5.20
2023-02-08T19:45:59.398Z,5.13
2023-02-08T19:48:26.470Z,5.13
2023-02-08T19:50:56.600Z,5.70
2023-02-08T19:53:23.032Z,5.27
2023-02-08T19:55:56.429Z,5.80
2023-02-08T19:58:22.668Z,5.17
2023-02-08T20:00:49.228Z,5.33
2023-02-08T20:03:21.542Z,4.97
2023-02-08T20:05:49.551Z,5.10
2023-02-08T20:08:16.296Z,5.67
2023-02-08T20:10:43.971Z,5.83
2023-02-08T20:13:10.567Z,6.87
2023-02-08T20:15:37.492Z,5.80
2023-02-08T20:18:04.801Z,5.57
2023-02-08T20:20:31.577Z,5.93
2023-02-08T20:23:00.975Z,5.63
2023-02-08T20:25:28.291Z,6.00
2023-02-08T20:27:54.720Z,5.50
2023-02-08T20:30:21.925Z,5.33
2023-02-08T20:32:48.236Z,6.43
2023-02-08T20:35:14.894Z,5.57
2023-02-08T20:37:41.597Z,4.83
2023-02-08T20:40:11.283Z,5.27
2023-02-08T20:42:40.854Z,5.10
2023-02-08T20:45:08.344Z,5.80
2023-02-08T20:47:41.715Z,5.10
2023-02-08T20:50:18.752Z,5.17
2023-02-08T20:52:46.049Z,5.33
2023-02-08T20:55:12.988Z,5.70
2023-02-08T20:57:39.164Z,4.93
2023-02-08T21:00:06.168Z,5.60
2023-02-08T21:02:32.533Z,5.60
2023-02-08T21:04:58.942Z,5.47
2023-02-08T21:07:25.218Z,5.13
2023-02-08T21:09:51.436Z,5.80
2023-02-08T21:12:18.375Z,5.47
2023-02-08T21:14:44.519Z,5.63
2023-02-08T21:17:10.979Z,4.90
2023-02-08T21:19:38.807Z,5.33
2023-02-08T21:22:05.205Z,4.60
2023-02-08T21:24:31.390Z,5.07
2023-02-08T21:26:57.591Z,5.13
2023-02-08T21:29:24.892Z,4.73
2023-02-08T21:31:53.107Z,5.40
2023-02-08T21:34:19.646Z,5.10
2023-02-08T21:36:45.906Z,5.30
2023-02-08T21:39:12.458Z,5.50
2023-02-08T21:41:38.703Z,5.90
2023-02-08T21:44:07.277Z,5.67
2023-02-08T21:46:34.450Z,5.43
2023-02-08T21:49:30.345Z,6.07
2023-02-08T21:52:14.684Z,5.30
2023-02-08T21:54:40.949Z,5.57
2023-02-08T21:57:09.098Z,5.20
2023-02-08T21:59:36.623Z,5.50
2023-02-08T22:02:05.044Z,5.50
2023-02-08T22:04:31.595Z,5.67
2023-02-08T22:06:57.753Z,5.40
2023-02-08T22:09:23.913Z,5.77
2023-02-08T22:11:50.145Z,5.70
2023-02-08T22:14:16.395Z,5.23
2023-02-08T22:16:42.645Z,5.73
2023-02-08T22:19:09.479Z,5.77
2023-02-08T22:21:35.694Z,5.27
2023-02-08T22:24:01.939Z,5.73
2023-02-08T22:26:28.232Z,5.70
2023-02-08T22:28:54.474Z,5.83
2023-02-08T22:31:20.768Z,6.03
2023-02-08T22:33:47.075Z,5.27
2023-02-08T22:36:13.991Z,6.30
2023-02-08T22:38:40.245Z,5.77
2023-02-08T22:41:09.867Z,5.87
2023-02-08T22:43:36.114Z,5.90
2023-02-08T22:46:02.519Z,5.47
2023-02-08T22:48:28.770Z,6.20
2023-02-08T22:50:54.993Z,5.70
2023-02-08T22:53:21.861Z,9.37
2023-02-08T22:55:49.470Z,6.97
2023-02-08T22:58:15.742Z,6.53
2023-02-08T23:00:42.782Z,6.37
2023-02-08T23:03:09.211Z,6.80
2023-02-08T23:05:40.163Z,7.13
2023-02-08T23:08:06.333Z,6.37
2023-02-08T23:10:33.324Z,6.60
2023-02-08T23:12:59.542Z,6.40
2023-02-08T23:15:25.738Z,5.70
2023-02-08T23:17:52.094Z,5.50
2023-02-08T23:20:18.459Z,6.57
2023-02-08T23:22:44.715Z,6.03
2023-02-08T23:25:11.051Z,6.00
2023-02-08T23:27:37.967Z,6.37
2023-02-08T23:30:05.574Z,6.63
2023-02-08T23:32:32.756Z,5.80
2023-02-08T23:34:58.945Z,5.67
2023-02-08T23:37:25.095Z,6.03
2023-02-08T23:39:51.338Z,5.97
2023-02-08T23:42:24.808Z,5.97
2023-02-08T23:44:51.639Z,6.37
2023-02-08T23:47:17.876Z,5.40
2023-02-08T23:49:44.334Z,6.00
2023-02-08T23:52:10.594Z,6.10
2023-02-08T23:54:36.748Z,6.17
2023-02-08T23:57:03.084Z,6.33
2023-02-08T23:59:29.374Z,6.27
